Soaring Guidance
Issued by NWS Reno, NV

Home | Current Version | Previous Version | Text Only | Print | Product List | Glossary On
Versions: 1 2 3 4 5 6 7 8 9 10 11 12 13 14 15
000
UXUS97 KREV 011346
SRGREV

SOARING FORECAST
NATIONAL WEATHER SERVICE - RENO NV
700 AM PDT WED JUL 1 2015

THIS SOARING FORECAST IS FOR THE EASTERN SIERRA AND WESTERN NEVADA
WITH SPECIFIC INDICES FOR THE GREATER RENO AREA.

THIS FORECAST IS PREPARED DAILY BY 700 AM AND IS NOT UPDATED.

FOR CURRENT FLIGHT CONDITIONS...FORECASTS...AND ADVISORIES...ACCESS
YOUR LOCAL BRIEFING OUTLET OR FLIGHT SERVICE STATION.

*******************************************************************
FORECASTED LOCAL INDICES FOR RENO:        TODAY     YESTERDAY
FORECASTED MAX TEMP AT RENO (DEG F).....    103          99
FORECASTED TRIGGER TEMPERATURE (DEG F)..     87          85
   EXCEEDED YESTERDAY BY 1055 AM PDT
FORECASTED MAXIMUM ALTITUDE (FT MSL)....  17900       17200
FORECASTED SOARING INDEX (FPM)..........   1167        1116
FORECASTED K-INDEX.........VALID 18Z....     21          28
FORECASTED K-INDEX.........VALID 00Z....     25          30
FORECASTED LIFTED INDEX....VALID 18Z....      4           4
FORECASTED LIFTED INDEX....VALID 00Z....      2           2

AFTERNOON WINDS ALOFT FORECAST
MSL (FT) WIND/TEMP
9000  3008/+22
10000 3007/+19
12000 3106/+13
14000 1606/+06
16000 1206/+00
18000 1315/-07
24000 1417/-17
30000 1719/-32
34000 1824/-42
39000 2231/-56

SLIDE MOUNTAIN DATA:
     DATE       TIME     TEMP  DEWPT   RH         WIND (MPH)
                        (F)   (F)           | DIR  SPEED GUST
2015-07-01    05:50      62    42     45    | 058    9   13
2015-07-01    05:30      62    42     45    | 078    7    8
2015-07-01    05:20      62    42     44    | 090    0    1
2015-07-01    05:00      62    42     44    | 097    0    0

RENO TAF FORECAST:
KRNO 011139Z 0112/0212 VRB03KT P6SM SCT120 SCT200
     FM012200 27008G16KT P6SM VCTS SCT070CB BKN120
     FM020200 30013G22KT P6SM SCT080 SCT120 BKN200
     FM020500 VRB04KT P6SM SCT140 BKN200

CARSON CITY TAF FORECAST:
KCXP 011139Z 0112/0212 VRB03KT P6SM SCT120 SCT200
     FM012200 25009G16KT P6SM VCTS SCT070CB BKN120
     FM020200 28009G16KT P6SM SCT070 SCT120 BKN200
     FM020500 VRB03KT P6SM SCT140 BKN200

OUTLOOK FOR THE RENO-CARSON CITY-MINDEN AREA:
.THURSDAY...PARTLY CLOUDY. SLIGHT CHANCE OF SHOWERS AND
THUNDERSTORMS IN THE AFTERNOON. HIGHS 99 TO 104. WEST WINDS UP TO
10 MPH IN THE MORNING BECOMING LIGHT.

SUNRISE AND SUNSET
JULY  1 2015..........SUNRISE   536 AM PDT   SUNSET   830 PM PDT
JULY  2 2015..........SUNRISE   536 AM PDT   SUNSET   830 PM PDT



USA.gov is the U.S. government's official web portal to all federal, state and local government web resources and services.